Time;durP1;ratioP1;P1;durP2;ratioP2;P2;SDS_P1;SDS_P2;PMS_P1;PMS_P2;Temp;Humidity;BMP_temperature;BMP_pressure;BME280_temperature;BME280_humidity;BME280_pressure;Samples;Min_cycle;Max_cycle;Signal;HPM_P1;HPM_P2
2023/08/28 00:01:47;;;;;;;4.40;1.38;;;;;;;14.42;89.64;100296.28;4916453;29;20086;-66
2023/08/28 00:04:51;;;;;;;3.15;1.40;;;;;;;14.45;90.08;100297.00;4916604;29;20112;-66
2023/08/28 00:08:20;;;;;;;3.47;1.15;;;;;;;14.52;89.68;100304.38;4916640;29;20110;-65
2023/08/28 00:11:23;;;;;;;4.05;1.25;;;;;;;14.48;89.80;100292.34;4913300;29;20568;-66
2023/08/28 00:14:26;;;;;;;6.85;1.35;;;;;;;14.53;89.10;100287.63;4916929;29;20191;-66
2023/08/28 00:17:30;;;;;;;;;;;;;;;14.49;89.24;100280.91;4917557;29;20051;-66
2023/08/28 00:20:34;;;;;;;2.25;1.00;;;;;;;14.47;88.98;100288.03;4916952;29;19922;-66
2023/08/28 00:23:37;;;;;;;5.65;1.00;;;;;;;14.47;88.91;100272.25;4916739;29;20119;-66
2023/08/28 00:26:40;;;;;;;3.42;1.10;;;;;;;14.51;88.81;100278.16;4916768;29;20135;-66
2023/08/28 00:29:43;;;;;;;4.18;1.45;;;;;;;14.43;88.98;100266.38;4916035;29;20062;-65
2023/08/28 00:32:48;;;;;;;4.65;1.35;;;;;;;14.40;89.21;100265.78;4904833;29;20679;-66
2023/08/28 00:35:51;;;;;;;1.92;0.98;;;;;;;14.40;89.33;100255.25;4897558;29;20123;-66
2023/08/28 00:38:54;;;;;;;4.43;1.20;;;;;;;14.25;89.78;100261.59;4893644;29;20047;-65
2023/08/28 00:41:57;;;;;;;3.55;1.00;;;;;;;14.32;89.62;100270.72;4905068;29;20604;-65
2023/08/28 00:45:02;;;;;;;8.27;1.55;;;;;;;14.31;88.70;100256.75;4899231;29;20047;-66
2023/08/28 00:48:05;;;;;;;6.53;2.08;;;;;;;13.67;91.06;100259.50;4904800;29;20051;-65
2023/08/28 00:51:08;;;;;;;5.40;1.30;;;;;;;13.79;91.57;100264.88;4916743;29;20055;-65
2023/08/28 00:54:11;;;;;;;5.32;1.38;;;;;;;13.98;90.71;100262.63;4915020;29;20127;-65
2023/08/28 00:57:17;;;;;;;2.63;1.25;;;;;;;13.89;91.02;100258.03;4916350;29;20059;-65
2023/08/28 01:00:20;;;;;;;2.72;1.58;;;;;;;14.04;90.27;100254.31;4920389;29;20078;-65
2023/08/28 01:03:23;;;;;;;4.40;1.58;;;;;;;14.06;89.96;100257.66;4908638;29;20051;-65
2023/08/28 01:06:35;;;;;;;3.20;1.10;;;;;;;13.92;89.90;100261.28;4920237;29;20055;-66
2023/08/28 01:10:01;;;;;;;4.20;1.40;;;;;;;13.94;89.07;100250.63;4908826;29;20160;-66
2023/08/28 01:13:31;;;;;;;2.05;0.90;;;;;;;13.81;88.56;100258.53;4919859;29;20051;-66
2023/08/28 01:16:37;;;;;;;5.38;0.90;;;;;;;13.90;87.85;100262.31;4908423;29;20066;-66
2023/08/28 01:19:41;;;;;;;3.97;1.05;;;;;;;13.97;87.59;100268.81;4908279;29;20055;-66
2023/08/28 01:22:59;;;;;;;3.17;1.10;;;;;;;13.92;87.17;100261.28;4920055;29;20051;-66
2023/08/28 01:26:02;;;;;;;3.75;1.10;;;;;;;13.95;86.98;100247.06;4908486;29;20516;-66
2023/08/28 01:29:05;;;;;;;;;;;;;;;13.90;87.17;100236.88;4908648;29;20043;-66
2023/08/28 01:32:08;;;;;;;2.50;0.90;;;;;;;13.79;88.36;100231.53;4908151;29;20002;-66
2023/08/28 01:35:24;;;;;;;3.80;0.90;;;;;;;13.91;88.38;100216.69;4908122;29;20217;-66
2023/08/28 01:38:37;;;;;;;2.67;1.20;;;;;;;13.93;87.79;100220.06;4907944;29;20413;-66
2023/08/28 01:41:41;;;;;;;4.97;1.40;;;;;;;13.90;88.04;100215.00;4908227;29;20395;-65
2023/08/28 01:44:45;;;;;;;3.22;1.05;;;;;;;13.87;88.54;100231.00;4919907;29;20291;-66
2023/08/28 01:47:48;;;;;;;3.75;1.38;;;;;;;13.83;88.66;100230.38;4919557;29;20140;-65
2023/08/28 01:50:52;;;;;;;5.93;1.25;;;;;;;13.80;89.03;100242.91;4907861;29;20055;-65
2023/08/28 01:53:56;;;;;;;4.95;1.55;;;;;;;13.88;88.65;100253.69;4919451;29;20047;-65
2023/08/28 01:56:59;;;;;;;3.53;1.33;;;;;;;13.86;89.09;100268.75;4907664;29;20581;-66
2023/08/28 02:00:03;;;;;;;3.40;1.55;;;;;;;13.46;90.82;100274.97;4907594;29;20047;-65
2023/08/28 02:03:07;;;;;;;2.85;1.63;;;;;;;13.31;92.28;100283.06;4907444;29;20051;-65
2023/08/28 02:06:10;;;;;;;2.60;1.23;;;;;;;13.54;91.92;100292.84;4902857;29;20052;-65
2023/08/28 02:09:13;;;;;;;6.38;1.50;;;;;;;13.58;90.75;100304.81;4914929;29;20115;-65
2023/08/28 02:12:16;;;;;;;4.57;1.65;;;;;;;13.41;92.17;100311.22;4907420;29;20043;-65
2023/08/28 02:15:19;;;;;;;3.75;1.40;;;;;;;13.30;92.53;100312.88;4907102;29;20063;-65
2023/08/28 02:18:23;;;;;;;3.67;1.75;;;;;;;13.33;92.68;100310.03;4919026;29;20046;-65
2023/08/28 02:21:26;;;;;;;;;;;;;;;13.56;91.87;100317.22;4897031;29;20055;-65
2023/08/28 02:24:29;;;;;;;2.72;1.48;;;;;;;13.70;90.90;100319.72;4918963;29;20289;-65
2023/08/28 02:27:32;;;;;;;2.47;1.50;;;;;;;13.60;90.48;100326.56;4907090;29;20051;-65
2023/08/28 02:30:36;;;;;;;4.43;1.45;;;;;;;13.45;90.60;100323.19;4907171;29;20046;-65
2023/08/28 02:33:39;;;;;;;4.90;1.55;;;;;;;13.48;90.65;100322.97;4918738;29;20040;-65
2023/08/28 02:36:43;;;;;;;3.10;1.40;;;;;;;13.69;90.38;100323.31;4907021;29;20078;-65
2023/08/28 02:39:46;;;;;;;2.40;1.40;;;;;;;13.79;89.47;100317.44;4918568;29;20112;-65
2023/08/28 02:42:50;;;;;;;3.55;1.60;;;;;;;13.72;89.66;100317.84;4918419;29;20083;-65
2023/08/28 02:45:53;;;;;;;3.28;1.42;;;;;;;13.60;90.08;100318.69;4918522;29;20582;-65
2023/08/28 02:48:56;;;;;;;4.57;1.63;;;;;;;13.64;89.63;100314.06;4907032;29;20055;-65
2023/08/28 02:52:00;;;;;;;3.05;1.55;;;;;;;13.57;89.63;100313.63;4906994;29;20055;-65
2023/08/28 02:55:03;;;;;;;2.45;1.38;;;;;;;13.61;89.89;100304.59;4918337;29;20043;-65
2023/08/28 02:58:08;;;;;;;4.35;1.88;;;;;;;13.63;90.13;100296.63;4901784;29;20063;-65
2023/08/28 03:01:11;;;;;;;4.15;1.88;;;;;;;13.50;90.38;100291.38;4906493;29;20079;-66
2023/08/28 03:04:14;;;;;;;2.60;1.20;;;;;;;13.47;90.39;100297.66;4906476;29;20047;-65
2023/08/28 03:07:18;;;;;;;4.72;1.88;;;;;;;13.53;90.94;100304.28;4902856;29;20124;-65
2023/08/28 03:10:22;;;;;;;7.68;1.90;;;;;;;13.16;92.81;100304.09;4906254;29;20183;-65
2023/08/28 03:13:25;;;;;;;3.15;2.08;;;;;;;13.08;93.90;100300.28;4906060;29;20051;-65
2023/08/28 03:16:28;;;;;;;2.83;1.60;;;;;;;13.28;92.19;100291.13;4894857;29;20066;-65
2023/08/28 03:19:32;;;;;;;;;;;;;;;13.41;90.37;100278.84;4906648;29;20054;-65
2023/08/28 03:22:35;;;;;;;2.97;1.85;;;;;;;13.42;90.79;100277.91;4917867;29;20384;-65
2023/08/28 03:25:38;;;;;;;3.85;1.42;;;;;;;13.36;90.93;100273.91;4906101;29;20124;-65
2023/08/28 03:28:42;;;;;;;3.78;1.90;;;;;;;13.25;91.54;100261.50;4906020;29;20075;-65
2023/08/28 03:31:45;;;;;;;2.50;1.80;;;;;;;13.32;91.98;100255.84;4917752;29;20410;-65
2023/08/28 03:34:50;;;;;;;6.32;2.53;;;;;;;13.00;93.02;100257.03;4905888;29;20056;-65
2023/08/28 03:37:53;;;;;;;4.05;2.38;;;;;;;12.93;94.41;100257.56;4917618;29;20522;-65
2023/08/28 03:40:57;;;;;;;2.97;1.98;;;;;;;12.89;94.33;100256.03;4917504;29;20099;-65
2023/08/28 03:44:00;;;;;;;4.03;2.13;;;;;;;12.98;93.81;100271.19;4905725;29;20047;-65
2023/08/28 03:47:04;;;;;;;4.32;2.08;;;;;;;13.03;92.87;100266.50;4917388;29;20414;-65
2023/08/28 03:50:07;;;;;;;4.30;1.75;;;;;;;13.09;91.62;100270.50;4917583;29;20066;-65
2023/08/28 03:53:10;;;;;;;2.50;1.60;;;;;;;13.12;90.93;100265.03;4901206;29;20051;-65
2023/08/28 03:56:13;;;;;;;;;;;;;;;13.10;90.47;100256.41;4905968;29;20185;-65
2023/08/28 03:59:18;;;;;;;4.65;1.20;;;;;;;13.15;89.81;100259.59;4901948;29;19922;-65
2023/08/28 04:02:21;;;;;;;2.67;1.40;;;;;;;13.16;89.45;100256.00;4917082;29;20047;-65
2023/08/28 04:05:26;;;;;;;2.63;1.40;;;;;;;13.25;88.59;100255.41;4905436;29;20467;-66
2023/08/28 04:08:31;;;;;;;3.20;1.45;;;;;;;13.12;88.71;100247.50;4905356;29;20047;-65
2023/08/28 04:11:35;;;;;;;3.65;1.50;;;;;;;13.15;88.59;100255.16;4916854;29;20108;-65
2023/08/28 04:14:39;;;;;;;2.58;1.63;;;;;;;13.15;88.60;100249.91;4916717;29;20486;-65
2023/08/28 04:17:43;;;;;;;3.50;1.50;;;;;;;13.10;89.05;100238.88;4905281;29;20059;-65
2023/08/28 04:20:47;;;;;;;3.08;1.75;;;;;;;13.09;89.46;100228.50;4905184;29;20055;-65
2023/08/28 04:23:51;;;;;;;4.72;1.92;;;;;;;13.14;89.37;100227.22;4916714;29;20477;-65
2023/08/28 04:26:54;;;;;;;3.03;1.80;;;;;;;13.08;89.70;100226.78;4916593;29;20059;-65
2023/08/28 04:29:58;;;;;;;2.80;1.98;;;;;;;13.13;89.65;100219.47;4905090;29;20055;-65
2023/08/28 04:33:02;;;;;;;2.70;1.67;;;;;;;13.18;89.29;100212.97;4904934;29;20582;-65
2023/08/28 04:36:05;;;;;;;5.10;2.05;;;;;;;13.19;89.62;100213.78;4911635;29;20135;-65
2023/08/28 04:39:08;;;;;;;3.42;1.80;;;;;;;13.17;89.21;100216.50;4904847;29;20558;-65
2023/08/28 04:42:14;;;;;;;4.13;2.40;;;;;;;13.11;89.48;100214.28;4900328;29;20480;-65
2023/08/28 04:45:17;;;;;;;3.72;2.28;;;;;;;13.05;90.22;100212.13;4904245;29;20071;-65
2023/08/28 04:48:21;;;;;;;6.07;2.13;;;;;;;13.14;90.04;100215.88;4903140;29;20107;-66
2023/08/28 04:51:24;;;;;;;;;;;;;;;13.14;89.79;100226.38;4903464;29;20047;-65
2023/08/28 04:54:27;;;;;;;3.17;2.10;;;;;;;13.12;89.37;100223.88;4915328;29;20115;-65
2023/08/28 04:57:32;;;;;;;2.85;1.98;;;;;;;13.11;89.46;100237.91;4915370;29;20059;-65
2023/08/28 05:00:36;;;;;;;3.78;2.03;;;;;;;12.99;90.27;100239.59;4915304;29;20054;-66
2023/08/28 05:03:39;;;;;;;3.47;1.90;;;;;;;13.10;90.27;100238.88;4892591;29;20458;-66
2023/08/28 05:06:42;;;;;;;;;;;;;;;13.12;89.78;100250.13;4903590;29;20095;-65
2023/08/28 05:09:45;;;;;;;3.33;1.85;;;;;;;13.07;89.72;100246.13;4903187;29;19922;-65
2023/08/28 05:12:48;;;;;;;3.92;1.95;;;;;;;13.09;89.73;100242.47;4901613;29;20172;-65
2023/08/28 05:15:52;;;;;;;2.60;1.70;;;;;;;13.02;89.75;100259.56;4902196;29;20112;-65
2023/08/28 05:18:55;;;;;;;3.28;2.33;;;;;;;13.02;89.88;100255.16;4902076;29;20176;-65
2023/08/28 05:21:59;;;;;;;3.50;2.15;;;;;;;13.04;89.67;100252.41;4896046;29;20193;-65
2023/08/28 05:25:02;;;;;;;;;;;;;;;12.96;90.06;100249.47;4896667;29;20067;-65
2023/08/28 05:28:05;;;;;;;2.70;1.80;;;;;;;13.03;89.67;100259.44;4903126;29;20392;-65
2023/08/28 05:31:08;;;;;;;2.95;1.70;;;;;;;13.02;89.64;100254.31;4903042;29;20051;-65
2023/08/28 05:34:12;;;;;;;2.95;2.08;;;;;;;13.08;88.80;100248.66;4902971;29;20044;-65
2023/08/28 05:37:16;;;;;;;2.47;1.60;;;;;;;13.02;89.17;100249.91;4914770;29;20590;-65
2023/08/28 05:40:19;;;;;;;2.95;2.00;;;;;;;13.04;89.39;100249.78;4916506;29;20426;-65
2023/08/28 05:43:24;;;;;;;2.78;2.00;;;;;;;13.05;89.47;100251.50;4903380;29;20579;-65
2023/08/28 05:46:27;;;;;;;;;;;;;;;13.14;89.32;100258.72;4918815;29;20082;-65
2023/08/28 05:49:32;;;;;;;2.70;1.67;;;;;;;13.04;88.67;100257.66;4906703;29;19930;-65
2023/08/28 05:52:36;;;;;;;4.80;1.70;;;;;;;12.97;89.56;100259.84;4906350;29;20042;-68
2023/08/28 05:55:40;;;;;;;4.50;1.60;;;;;;;12.75;92.01;100263.06;4917815;29;20043;-71
2023/08/28 05:58:44;;;;;;;2.85;1.63;;;;;;;12.60;93.52;100266.66;4905984;29;20083;-70
2023/08/28 06:01:47;;;;;;;;;;;;;;;12.50;93.92;100271.66;4906481;29;20581;-70
2023/08/28 06:04:52;;;;;;;3.83;1.90;;;;;;;12.45;94.12;100265.88;4906166;29;20337;-70
2023/08/28 06:07:56;;;;;;;2.88;1.80;;;;;;;12.75;93.05;100263.06;4917897;29;20591;-70
2023/08/28 06:11:00;;;;;;;2.92;1.70;;;;;;;12.85;92.73;100252.78;4900045;29;20080;-68
2023/08/28 06:14:03;;;;;;;2.55;1.65;;;;;;;13.00;90.40;100256.19;4917421;29;20415;-68
2023/08/28 06:17:07;;;;;;;4.20;1.45;;;;;;;12.95;91.33;100253.03;4905868;29;20120;-69
2023/08/28 06:20:11;;;;;;;3.53;1.50;;;;;;;12.73;93.23;100262.31;4901105;29;20050;-67
2023/08/28 06:23:14;;;;;;;3.78;1.67;;;;;;;12.98;92.05;100253.66;4905603;29;20047;-68
2023/08/28 06:26:17;;;;;;;3.90;1.75;;;;;;;12.80;93.10;100249.66;4904199;29;20107;-68
2023/08/28 06:29:20;;;;;;;3.10;1.63;;;;;;;12.87;92.46;100244.84;4917289;29;20067;-67
2023/08/28 06:32:24;;;;;;;2.53;1.60;;;;;;;12.87;91.89;100250.09;4903097;29;20043;-67
2023/08/28 06:35:28;;;;;;;5.00;1.85;;;;;;;12.94;90.99;100246.09;4917199;29;20050;-65
2023/08/28 06:38:33;;;;;;;3.05;1.67;;;;;;;12.91;91.38;100251.56;4898833;29;20071;-65
2023/08/28 06:41:36;;;;;;;2.33;1.60;;;;;;;12.78;91.47;100239.22;4898497;29;20115;-65
2023/08/28 06:44:42;;;;;;;2.22;1.48;;;;;;;12.87;91.95;100243.03;4886828;29;20591;-65
2023/08/28 06:47:45;;;;;;;1.88;0.95;;;;;;;13.11;90.57;100243.19;4898234;29;20047;-65
2023/08/28 06:50:51;;;;;;;2.30;1.35;;;;;;;13.11;91.42;100242.34;4897018;29;20157;-65
2023/08/28 06:53:54;;;;;;;2.20;1.23;;;;;;;12.99;91.83;100254.53;4898153;29;20131;-65
2023/08/28 06:56:58;;;;;;;5.18;1.52;;;;;;;13.21;91.33;100251.31;4898140;29;20132;-65
2023/08/28 07:00:02;;;;;;;3.47;1.27;;;;;;;13.45;90.29;100259.31;4898109;29;20056;-66
2023/08/28 07:03:06;;;;;;;2.38;1.33;;;;;;;13.60;89.55;100258.25;4892859;29;20204;-65
2023/08/28 07:06:09;;;;;;;2.88;0.80;;;;;;;13.70;88.86;100255.84;4897999;29;20191;-65
2023/08/28 07:09:12;;;;;;;2.08;0.93;;;;;;;13.78;89.46;100255.28;4893558;29;20476;-66
2023/08/28 07:12:16;;;;;;;;;;;;;;;13.96;88.76;100262.72;4898459;29;20043;-71
2023/08/28 07:15:18;;;;;;;3.45;1.17;;;;;;;14.04;88.21;100267.47;4893932;29;19946;-66
2023/08/28 07:18:22;;;;;;;2.38;1.20;;;;;;;14.09;88.01;100262.69;4897814;29;20422;-66
2023/08/28 07:21:32;;;;;;;3.60;1.13;;;;;;;13.78;88.46;100263.19;4897581;29;20055;-66
2023/08/28 07:24:35;;;;;;;2.05;1.20;;;;;;;13.68;89.59;100261.19;4897102;29;20091;-66
2023/08/28 07:27:38;;;;;;;1.85;1.17;;;;;;;13.73;89.20;100272.22;4897631;29;20077;-66
2023/08/28 07:30:42;;;;;;;2.00;1.10;;;;;;;13.92;89.64;100265.69;4895406;29;20156;-66
2023/08/28 07:33:45;;;;;;;4.85;1.40;;;;;;;13.89;89.14;100265.91;4895562;29;20052;-77
2023/08/28 07:36:48;;;;;;;2.25;1.00;;;;;;;13.96;88.88;100267.97;4895243;29;20119;-66
2023/08/28 07:39:52;;;;;;;1.95;1.08;;;;;;;13.93;91.41;100256.84;4895185;29;20055;-65
2023/08/28 07:42:56;;;;;;;2.22;1.00;;;;;;;14.06;91.39;100259.44;4896317;29;20108;-65
2023/08/28 07:45:59;;;;;;;1.70;1.08;;;;;;;14.11;90.77;100255.56;4897149;29;20108;-65
2023/08/28 07:49:03;;;;;;;3.80;1.17;;;;;;;14.29;90.22;100257.81;4912267;29;20047;-67
2023/08/28 07:52:06;;;;;;;3.97;1.20;;;;;;;14.43;89.18;100255.88;4913315;29;20134;-67
2023/08/28 07:55:09;;;;;;;3.25;1.20;;;;;;;14.56;88.10;100255.84;4915219;29;20139;-67
2023/08/28 07:58:13;;;;;;;2.15;0.90;;;;;;;14.62;87.34;100258.03;4911130;29;20109;-67
2023/08/28 08:01:16;;;;;;;2.25;1.50;;;;;;;14.49;87.95;100251.97;4909472;29;20063;-67
2023/08/28 08:04:20;;;;;;;2.28;1.15;;;;;;;14.57;88.25;100256.69;4894114;29;20051;-67
2023/08/28 08:07:24;;;;;;;4.10;1.60;;;;;;;14.60;88.45;100251.19;4914670;29;20039;-67
2023/08/28 08:10:27;;;;;;;3.25;1.52;;;;;;;14.57;88.00;100252.25;4912803;29;20092;-67
2023/08/28 08:13:30;;;;;;;3.72;1.48;;;;;;;14.65;88.73;100247.28;4913007;29;20134;-67
2023/08/28 08:16:34;;;;;;;3.20;0.95;;;;;;;14.75;88.02;100241.34;4909879;29;20067;-67
2023/08/28 08:19:37;;;;;;;2.85;1.05;;;;;;;14.86;87.52;100230.81;4910387;29;20095;-67
2023/08/28 08:22:42;;;;;;;3.35;1.00;;;;;;;15.04;86.96;100229.47;4910946;29;20111;-66
2023/08/28 08:25:45;;;;;;;1.73;1.10;;;;;;;15.06;87.43;100226.69;4911573;29;20051;-67
2023/08/28 08:28:50;;;;;;;3.20;1.25;;;;;;;15.11;87.78;100224.56;4907759;29;20415;-66
2023/08/28 08:31:53;;;;;;;2.95;0.95;;;;;;;15.11;86.98;100230.66;4909747;29;20087;-66
2023/08/28 08:34:59;;;;;;;4.20;1.23;;;;;;;15.19;87.05;100237.13;4910370;29;20047;-66
2023/08/28 08:38:02;;;;;;;4.22;1.15;;;;;;;15.30;86.26;100243.28;4910690;29;20511;-66
2023/08/28 08:41:08;;;;;;;2.22;1.05;;;;;;;15.33;85.30;100231.66;4906208;29;20574;-66
2023/08/28 08:44:12;;;;;;;1.80;1.00;;;;;;;15.42;85.59;100244.13;4912160;29;20069;-66
2023/08/28 08:47:19;;;;;;;3.20;1.20;;;;;;;15.32;86.13;100245.81;4908693;29;20554;-67
2023/08/28 08:50:27;;;;;;;2.45;1.30;;;;;;;15.45;86.10;100233.38;4912283;29;20079;-66
2023/08/28 08:53:56;;;;;;;2.92;1.40;;;;;;;15.58;86.75;100222.72;4912698;29;20173;-66
2023/08/28 08:57:08;;;;;;;2.58;1.30;;;;;;;15.72;87.32;100219.00;4907260;29;20095;-66
2023/08/28 09:00:15;;;;;;;2.20;1.08;;;;;;;15.96;85.65;100219.72;4910639;29;20047;-64
2023/08/28 09:03:21;;;;;;;1.70;0.80;;;;;;;16.08;84.40;100219.69;4915220;29;20126;-65
2023/08/28 09:06:29;;;;;;;1.77;0.80;;;;;;;16.19;84.71;100207.31;4915070;29;20139;-65
2023/08/28 09:09:33;;;;;;;2.88;1.13;;;;;;;16.27;82.84;100198.78;4915121;29;20366;-65
2023/08/28 09:12:37;;;;;;;5.93;1.13;;;;;;;16.16;82.71;100197.00;4915224;29;20050;-65
2023/08/28 09:15:40;;;;;;;2.30;1.08;;;;;;;16.16;83.81;100199.66;4912170;29;20086;-64
2023/08/28 09:18:43;;;;;;;3.17;1.13;;;;;;;16.20;85.19;100197.59;4918917;29;20111;-64
2023/08/28 09:21:48;;;;;;;2.53;1.13;;;;;;;16.38;85.03;100192.63;4918845;29;20066;-66
2023/08/28 09:24:52;;;;;;;3.15;0.90;;;;;;;16.38;83.32;100198.75;4917860;29;20202;-64
2023/08/28 09:27:56;;;;;;;2.00;0.85;;;;;;;16.42;83.48;100194.88;4917774;29;20050;-64
2023/08/28 09:31:00;;;;;;;3.00;1.02;;;;;;;16.55;84.40;100197.34;4918107;29;20521;-64
2023/08/28 09:34:04;;;;;;;3.92;1.08;;;;;;;16.69;83.31;100193.59;4918434;29;20067;-65
2023/08/28 09:37:10;;;;;;;2.10;0.90;;;;;;;16.80;83.25;100196.19;4918874;29;20090;-65
2023/08/28 09:40:16;;;;;;;2.10;1.00;;;;;;;16.81;83.04;100203.13;4917524;29;20519;-66
2023/08/28 09:47:42;;;;;;;15.50;1.98;;;;;;;16.88;83.60;100212.25;4918882;29;20051;-64
2023/08/28 09:50:51;;;;;;;3.80;1.45;;;;;;;16.83;82.69;100219.69;4918482;29;20107;-64
2023/08/28 09:54:00;;;;;;;3.72;1.00;;;;;;;16.82;84.50;100215.41;4918258;29;20111;-64
2023/08/28 09:57:16;;;;;;;2.42;0.88;;;;;;;17.05;83.33;100223.19;4918268;29;20522;-67
2023/08/28 10:00:20;;;;;;;2.42;0.88;;;;;;;17.23;82.55;100234.88;4918524;29;20051;-64
2023/08/28 10:03:26;;;;;;;3.55;1.23;;;;;;;17.27;80.46;100235.44;4918338;29;20051;-65
2023/08/28 10:06:38;;;;;;;3.03;1.20;;;;;;;17.05;81.63;100233.75;4918409;29;20177;-64
2023/08/28 10:09:43;;;;;;;1.98;0.90;;;;;;;17.36;79.70;100230.19;4918095;29;20567;-63
2023/08/28 10:12:47;;;;;;;2.97;1.08;;;;;;;17.50;77.39;100231.66;4917870;29;20055;-63
2023/08/28 10:16:10;;;;;;;2.60;1.05;;;;;;;17.60;76.83;100218.47;4917866;29;20115;-65
2023/08/28 10:19:31;;;;;;;3.78;0.90;;;;;;;17.60;76.14;100218.47;4917991;29;20051;-64
2023/08/28 10:22:36;;;;;;;2.72;1.27;;;;;;;17.93;73.85;100227.94;4917428;29;20054;-65
2023/08/28 10:25:42;;;;;;;4.13;2.10;;;;;;;17.91;69.49;100232.56;4917355;29;20518;-65
2023/08/28 10:28:45;;;;;;;6.72;1.90;;;;;;;18.08;68.91;100221.31;4917489;29;20047;-65
2023/08/28 10:31:49;;;;;;;4.18;1.48;;;;;;;18.16;67.56;100207.41;4906240;29;20544;-70
2023/08/28 10:34:53;;;;;;;3.15;1.40;;;;;;;18.03;67.51;100206.84;4918493;29;20423;-65
2023/08/28 10:37:59;;;;;;;3.22;1.60;;;;;;;18.07;67.66;100214.34;4916984;29;20441;-65
2023/08/28 10:41:04;;;;;;;3.90;1.50;;;;;;;18.22;68.07;100217.44;4916161;29;20050;-64
2023/08/28 10:44:09;;;;;;;4.10;1.40;;;;;;;18.19;64.85;100217.72;4911854;29;20087;-64
2023/08/28 10:47:19;;;;;;;3.88;1.70;;;;;;;18.22;62.73;100217.44;4916908;29;20051;-63
2023/08/28 10:50:23;;;;;;;3.50;1.42;;;;;;;18.12;61.28;100227.16;4895091;29;20091;-64
2023/08/28 10:53:27;;;;;;;4.18;1.30;;;;;;;18.13;63.71;100226.22;4917019;29;20047;-62
2023/08/28 10:56:35;;;;;;;4.30;1.48;;;;;;;18.30;64.83;100220.22;4915677;29;20115;-63
2023/08/28 10:59:43;;;;;;;5.70;1.70;;;;;;;18.15;62.74;100216.31;4916911;29;20106;-63
2023/08/28 11:03:09;;;;;;;4.68;1.88;;;;;;;18.25;63.41;100211.88;4916256;29;20055;-63
2023/08/28 11:06:39;;;;;;;4.88;1.70;;;;;;;18.24;63.77;100204.91;4912286;29;20624;-74
2023/08/28 11:09:43;;;;;;;3.38;1.60;;;;;;;18.16;62.62;100194.19;4916729;29;20055;-63
2023/08/28 11:13:01;;;;;;;3.92;1.63;;;;;;;18.31;62.73;100190.16;4916593;29;20099;-63
2023/08/28 11:16:04;;;;;;;5.10;2.05;;;;;;;18.43;63.11;100197.97;4916810;29;20059;-64
2023/08/28 11:19:07;;;;;;;4.15;1.77;;;;;;;18.56;61.91;100193.22;4916671;29;20409;-64
2023/08/28 11:22:11;;;;;;;5.03;1.58;;;;;;;18.78;59.54;100184.19;4916891;29;20062;-64
2023/08/28 11:25:35;;;;;;;5.75;1.60;;;;;;;18.96;59.57;100179.84;4916755;29;20055;-72
2023/08/28 11:28:45;;;;;;;4.68;1.55;;;;;;;19.04;58.08;100177.28;4905134;29;20473;-72
2023/08/28 11:31:50;;;;;;;5.28;1.65;;;;;;;19.02;58.00;100191.69;4916556;29;20046;-72
2023/08/28 11:34:53;;;;;;;4.13;1.48;;;;;;;19.15;58.33;100194.84;4916210;29;20051;-73
2023/08/28 11:37:56;;;;;;;3.72;1.48;;;;;;;19.01;58.93;100182.03;4915910;29;20449;-72
2023/08/28 11:41:04;;;;;;;3.28;1.58;;;;;;;18.89;59.14;100176.09;4916287;29;20046;-71
2023/08/28 11:44:12;;;;;;;4.40;1.17;;;;;;;18.68;59.98;100176.22;4915974;29;20055;-78
2023/08/28 11:47:23;;;;;;;4.65;1.20;;;;;;;18.64;59.81;100180.13;4904362;29;20111;-64
2023/08/28 11:50:27;;;;;;;2.55;1.45;;;;;;;18.59;59.30;100179.69;4916327;29;20051;-64
2023/08/28 11:53:40;;;;;;;3.97;1.15;;;;;;;18.48;59.17;100183.34;4915929;29;20092;-64
2023/08/28 11:56:43;;;;;;;;;;;;;;;18.48;59.19;100187.81;4916060;29;20111;-64
2023/08/28 11:59:48;;;;;;;5.82;1.50;;;;;;;18.68;59.24;100176.22;4915931;29;20032;-64
2023/08/28 12:02:51;;;;;;;3.15;1.30;;;;;;;18.88;58.41;100163.81;4915520;29;20067;-64
2023/08/28 12:06:08;;;;;;;2.95;1.35;;;;;;;19.19;58.29;100153.81;4915799;29;20050;-64
2023/08/28 12:09:12;;;;;;;2.08;1.08;;;;;;;19.29;60.49;100137.88;4915259;29;20478;-64
2023/08/28 12:12:17;;;;;;;3.53;1.60;;;;;;;18.81;61.51;100131.75;4914211;29;20138;-64
2023/08/28 12:15:32;;;;;;;3.30;1.30;;;;;;;18.92;60.79;100128.13;4914824;29;20541;-64
2023/08/28 12:18:51;;;;;;;4.20;1.13;;;;;;;19.50;59.35;100129.72;4914979;29;20056;-64
2023/08/28 12:22:05;;;;;;;2.50;1.00;;;;;;;18.95;58.89;100129.63;4914834;29;20355;-64
2023/08/28 12:25:09;;;;;;;4.32;2.17;;;;;;;18.93;60.01;100121.00;4915049;29;20099;-64
2023/08/28 12:28:13;;;;;;;4.50;1.38;;;;;;;19.33;63.33;100117.22;4915755;29;20419;-64
2023/08/28 12:31:27;;;;;;;2.80;1.20;;;;;;;19.19;60.31;100114.06;4915446;29;20429;-64
2023/08/28 12:34:31;;;;;;;3.60;1.13;;;;;;;19.35;59.47;100110.78;4915323;29;20046;-64
2023/08/28 12:37:35;;;;;;;3.38;1.30;;;;;;;19.81;58.25;100110.84;4915349;29;20427;-64
2023/08/28 12:40:42;;;;;;;3.65;1.80;;;;;;;20.93;54.85;100115.59;4915276;29;20466;-64
2023/08/28 12:43:45;;;;;;;6.38;1.58;;;;;;;20.79;56.48;100106.41;4915296;29;20549;-64
2023/08/28 12:46:49;;;;;;;2.95;1.40;;;;;;;20.79;56.48;100109.88;4915264;29;20043;-64
2023/08/28 12:49:52;;;;;;;3.58;1.45;;;;;;;19.15;59.48;100117.16;4915261;29;20158;-64
2023/08/28 12:52:56;;;;;;;4.75;1.50;;;;;;;18.87;61.78;100116.28;4915463;29;20095;-64
2023/08/28 12:55:59;;;;;;;3.95;1.30;;;;;;;18.48;63.26;100124.25;4914891;29;20062;-64
2023/08/28 12:59:02;;;;;;;4.55;1.10;;;;;;;18.52;63.45;100120.34;4903416;29;20058;-64
2023/08/28 13:02:09;;;;;;;3.47;1.25;;;;;;;18.43;61.17;100121.19;4914893;29;20095;-64
2023/08/28 13:05:12;;;;;;;4.55;1.20;;;;;;;18.30;63.29;100121.47;4915358;29;20131;-64
2023/08/28 13:08:16;;;;;;;5.50;1.45;;;;;;;18.20;65.84;100133.88;4914967;29;20211;-64
2023/08/28 13:11:19;;;;;;;3.42;1.50;;;;;;;18.03;66.86;100128.31;4914942;29;20095;-64
2023/08/28 13:14:23;;;;;;;3.83;1.35;;;;;;;18.02;66.93;100133.72;4914812;29;20099;-64
2023/08/28 13:17:26;;;;;;;4.65;1.10;;;;;;;17.89;67.22;100132.16;4915093;29;20423;-64
2023/08/28 13:20:29;;;;;;;3.58;1.70;;;;;;;17.70;66.72;100118.88;4915108;29;20079;-64
2023/08/28 13:23:33;;;;;;;4.47;1.50;;;;;;;17.79;67.38;100110.16;4914504;29;20062;-64
2023/08/28 13:26:37;;;;;;;2.70;1.38;;;;;;;17.99;67.37;100113.66;4915036;29;20050;-64
2023/08/28 13:29:40;;;;;;;4.32;1.23;;;;;;;18.30;64.57;100116.19;4915208;29;20138;-64
2023/08/28 13:32:50;;;;;;;3.42;1.40;;;;;;;18.38;64.73;100116.34;4914707;29;20063;-64
2023/08/28 13:35:53;;;;;;;4.03;1.30;;;;;;;18.59;64.63;100118.81;4913029;29;20070;-64
2023/08/28 13:38:57;;;;;;;4.00;1.40;;;;;;;18.58;65.61;100117.13;4914172;29;20430;-64
2023/08/28 13:42:00;;;;;;;4.72;1.40;;;;;;;18.17;65.58;100120.91;4914087;29;20060;-64
2023/08/28 13:45:04;;;;;;;2.72;1.10;;;;;;;18.30;66.60;100119.66;4914350;29;20467;-64
2023/08/28 13:48:07;;;;;;;9.85;3.20;;;;;;;18.31;66.64;100121.34;4914367;29;20108;-64
2023/08/28 13:51:11;;;;;;;3.58;1.13;;;;;;;18.56;66.03;100129.66;4914613;29;20593;-64
2023/08/28 13:54:15;;;;;;;2.65;1.40;;;;;;;18.57;66.04;100126.06;4914888;29;20449;-64
2023/08/28 13:57:18;;;;;;;4.07;1.52;;;;;;;18.78;66.69;100123.25;4914536;29;20058;-64
2023/08/28 14:00:21;;;;;;;4.50;1.73;;;;;;;18.94;65.07;100138.56;4915984;29;20550;-64
2023/08/28 14:03:29;;;;;;;6.47;2.17;;;;;;;18.83;64.93;100133.44;4917956;29;20103;-64
2023/08/28 14:06:32;;;;;;;4.18;1.83;;;;;;;18.81;66.05;100134.41;4918143;29;20426;-65
2023/08/28 14:09:36;;;;;;;3.72;1.35;;;;;;;19.09;64.58;100125.69;4918214;29;20422;-64
2023/08/28 14:12:39;;;;;;;3.50;1.23;;;;;;;19.08;65.00;100135.47;4917675;29;20462;-65
2023/08/28 14:15:46;;;;;;;3.38;1.20;;;;;;;19.21;64.87;100129.84;4917818;29;20418;-65
2023/08/28 14:18:49;;;;;;;4.65;1.20;;;;;;;19.12;64.39;100128.88;4917663;29;20183;-65
2023/08/28 14:21:53;;;;;;;2.55;1.00;;;;;;;19.08;61.97;100130.16;4917506;29;20074;-65
2023/08/28 14:24:56;;;;;;;3.53;1.27;;;;;;;19.13;61.46;100121.78;4917511;29;20059;-65
2023/08/28 14:28:00;;;;;;;3.53;0.90;;;;;;;19.29;60.34;100117.50;4917498;29;20464;-65
2023/08/28 14:31:03;;;;;;;2.15;0.93;;;;;;;19.95;57.94;100120.94;4917708;29;20130;-65